createdAt,value
2023-05-17T00:02:52.178Z,7.875
2023-05-17T00:07:53.154Z,7.8125
2023-05-17T00:12:54.339Z,7.8125
2023-05-17T00:17:55.371Z,7.875
2023-05-17T00:22:56.231Z,7.6875
2023-05-17T00:27:57.083Z,7.6875
2023-05-17T00:32:57.971Z,7.5
2023-05-17T00:37:59.170Z,7.625
2023-05-17T00:43:00.294Z,7.375
2023-05-17T00:48:01.190Z,7.4375
2023-05-17T00:53:02.845Z,7.3125
2023-05-17T00:58:03.053Z,7.25
2023-05-17T01:03:03.948Z,7.25
2023-05-17T01:08:04.982Z,7.25
2023-05-17T01:13:06.026Z,7.25
2023-05-17T01:18:06.862Z,7.25
2023-05-17T01:23:07.808Z,7.25
2023-05-17T01:28:08.641Z,7.25
2023-05-17T01:33:09.511Z,7.25
2023-05-17T01:38:10.479Z,7.25
2023-05-17T01:43:11.551Z,7.1875
2023-05-17T01:48:12.258Z,7.3125
2023-05-17T01:53:14.193Z,7.125
2023-05-17T01:58:14.278Z,7.25
2023-05-17T02:03:15.066Z,7.3125
2023-05-17T02:08:16.036Z,7.375
2023-05-17T02:13:16.915Z,7.25
2023-05-17T02:18:17.619Z,7.375
2023-05-17T02:23:18.420Z,7.375
2023-05-17T02:28:19.435Z,7.5625
2023-05-17T02:33:21.071Z,7.625
2023-05-17T02:38:22.112Z,7.8125
2023-05-17T02:43:23.151Z,7.875
2023-05-17T02:48:23.849Z,7.875
2023-05-17T02:53:24.893Z,7.9375
2023-05-17T02:58:25.970Z,7.9375
2023-05-17T03:03:26.934Z,8
2023-05-17T03:08:27.700Z,8.1875
2023-05-17T03:13:28.825Z,8.1875
2023-05-17T03:18:29.582Z,8.25
2023-05-17T03:23:30.640Z,8.1875
2023-05-17T03:28:31.812Z,8.375
2023-05-17T03:33:32.677Z,8.4375
2023-05-17T03:38:33.576Z,8.375
2023-05-17T03:43:34.535Z,8.375
2023-05-17T03:48:36.232Z,8.3125
2023-05-17T03:53:36.144Z,8.0625
2023-05-17T03:58:37.076Z,8.0625
2023-05-17T04:03:38.242Z,8
2023-05-17T04:08:38.970Z,8.0625
2023-05-17T04:13:39.786Z,8.25
2023-05-17T04:18:41.045Z,8.375
2023-05-17T04:23:41.809Z,8.375
2023-05-17T04:28:42.613Z,8.375
2023-05-17T04:33:43.957Z,8.3125
2023-05-17T04:38:44.616Z,8.3125
2023-05-17T04:43:45.613Z,8.5625
2023-05-17T04:48:46.661Z,8.625
2023-05-17T04:53:47.902Z,8.75
2023-05-17T04:58:48.267Z,8.75
2023-05-17T05:03:49.257Z,8.8125
2023-05-17T05:08:50.196Z,8.875
2023-05-17T05:13:51.060Z,9
2023-05-17T05:18:52.181Z,8.9375
2023-05-17T05:23:52.951Z,9.1875
2023-05-17T05:28:53.739Z,9.4375
2023-05-17T05:33:54.786Z,9.5
2023-05-17T05:38:55.932Z,9.4375
2023-05-17T05:43:56.789Z,9.625
2023-05-17T05:48:57.889Z,9.875
2023-05-17T05:53:58.973Z,10.4375
2023-05-17T05:58:59.876Z,10
2023-05-17T06:04:00.883Z,10.375
2023-05-17T06:09:01.818Z,10.375
2023-05-17T06:14:02.795Z,10.4375
2023-05-17T06:19:03.756Z,10.625
2023-05-17T06:24:05.240Z,10.5625
2023-05-17T06:29:05.970Z,11.4375
2023-05-17T06:34:06.703Z,11.4375
2023-05-17T06:39:07.777Z,11.5
2023-05-17T06:44:08.701Z,11.4375
2023-05-17T06:49:09.835Z,12.3125
2023-05-17T06:54:10.819Z,12.0625
2023-05-17T06:59:11.819Z,11.6875
2023-05-17T07:04:13.197Z,11.4375
2023-05-17T07:09:13.863Z,14.25
2023-05-17T07:14:15.048Z,15.8125
2023-05-17T07:19:16.525Z,15.8125
2023-05-17T07:24:17.190Z,15.8125
2023-05-17T07:29:18.085Z,17.6875
2023-05-17T07:34:19.161Z,16
2023-05-17T07:39:20.057Z,15.875
2023-05-17T07:44:20.902Z,15.0625
2023-05-17T07:49:21.906Z,17.6875
2023-05-17T07:54:23.070Z,14.4375
2023-05-17T07:59:23.749Z,17.5625
2023-05-17T08:04:24.788Z,18.25
2023-05-17T08:09:25.750Z,18.4375
2023-05-17T08:14:26.627Z,17.8125
2023-05-17T08:19:27.697Z,19.25
2023-05-17T08:24:28.460Z,18.25
2023-05-17T08:29:29.498Z,19.5625
2023-05-17T08:34:30.704Z,18.75
2023-05-17T08:39:31.530Z,19.25
2023-05-17T08:44:32.289Z,18.625
2023-05-17T08:49:33.242Z,19.125
2023-05-17T08:54:34.239Z,18.5625
2023-05-17T08:59:35.242Z,18.875
2023-05-17T09:04:36.233Z,17.3125
2023-05-17T09:09:37.260Z,15.9375
2023-05-17T09:14:38.399Z,15.75
2023-05-17T09:19:39.166Z,14.5625
2023-05-17T09:24:39.939Z,14.1875
2023-05-17T09:29:40.905Z,14.25
2023-05-17T09:34:41.842Z,14.1875
2023-05-17T09:39:42.944Z,13.1875
2023-05-17T09:44:44.033Z,13.5
2023-05-17T09:49:45.117Z,13.6875
2023-05-17T09:54:46.011Z,13.875
2023-05-17T09:59:47.039Z,13.375
2023-05-17T10:04:47.837Z,13.375
2023-05-17T10:09:48.953Z,13.125
2023-05-17T10:14:49.942Z,13.4375
2023-05-17T10:19:51.041Z,13.3125
2023-05-17T10:24:52.004Z,13.125
2023-05-17T10:29:52.717Z,13.4375
2023-05-17T10:35:01.956Z,13.125
2023-05-17T10:39:54.905Z,13.4375
2023-05-17T10:44:55.696Z,13.625
2023-05-17T10:49:56.801Z,13.8125
2023-05-17T10:54:57.662Z,13.5
2023-05-17T10:59:58.420Z,13.625
2023-05-17T11:04:59.266Z,13.375
2023-05-17T11:10:00.202Z,13.6875
2023-05-17T11:15:01.213Z,13.5
2023-05-17T11:20:02.382Z,13.8125
2023-05-17T11:25:03.131Z,13.75
2023-05-17T11:30:04.327Z,13.875
2023-05-17T11:35:09.478Z,14.125
2023-05-17T11:40:10.565Z,14.0625
2023-05-17T11:45:11.644Z,14.25
2023-05-17T11:50:12.685Z,14.4375
2023-05-17T11:55:14.647Z,14.4375
2023-05-17T12:00:14.921Z,14.625
2023-05-17T12:05:15.954Z,14.375
2023-05-17T12:10:16.971Z,14.9375
2023-05-17T12:15:18.071Z,14.5
2023-05-17T12:20:19.159Z,14.375
2023-05-17T12:25:19.999Z,14.125
2023-05-17T12:30:20.824Z,14.375
2023-05-17T12:35:21.610Z,15.0625
2023-05-17T12:40:22.435Z,14.875
2023-05-17T12:45:23.365Z,14.3125
2023-05-17T12:50:24.356Z,15.1875
2023-05-17T12:55:25.405Z,14.625
2023-05-17T13:00:26.229Z,14.875
2023-05-17T13:05:27.168Z,14.125
2023-05-17T13:10:28.704Z,14.5625
2023-05-17T13:15:29.133Z,15.0625
2023-05-17T13:20:30.466Z,14.875
2023-05-17T13:25:31.087Z,15.25
2023-05-17T13:30:32.126Z,14.6875
2023-05-17T13:35:33.156Z,14.875
2023-05-17T13:40:33.937Z,15.625
2023-05-17T13:45:34.814Z,15.125
2023-05-17T13:50:35.745Z,14.0625
2023-05-17T13:55:37.454Z,15
2023-05-17T14:00:37.531Z,15.25
2023-05-17T14:05:38.606Z,15.375
2023-05-17T14:10:39.459Z,14.4375
2023-05-17T14:15:40.419Z,14.5
2023-05-17T14:20:41.320Z,14.4375
2023-05-17T14:25:42.171Z,14.5
2023-05-17T14:30:42.996Z,14.875
2023-05-17T14:35:44.137Z,14.875
2023-05-17T14:40:45.040Z,14.5625
2023-05-17T14:45:45.973Z,14.375
2023-05-17T14:50:46.781Z,14.125
2023-05-17T14:55:47.664Z,14.125
2023-05-17T15:00:50.707Z,14.4375
2023-05-17T15:05:49.431Z,14.5625
2023-05-17T15:10:50.320Z,14.875
2023-05-17T15:15:51.212Z,15.4375
2023-05-17T15:20:52.107Z,15.125
2023-05-17T15:25:53.042Z,15.125
2023-05-17T15:30:53.725Z,15.0625
2023-05-17T15:35:54.878Z,14.75
2023-05-17T15:40:55.678Z,15
2023-05-17T15:45:56.643Z,14.3125
2023-05-17T15:50:57.747Z,14.4375
2023-05-17T15:55:59.628Z,14.5
2023-05-17T16:00:59.770Z,14.5625
2023-05-17T16:06:00.616Z,14.875
2023-05-17T16:11:02.469Z,14.625
2023-05-17T16:16:02.377Z,14.4375
2023-05-17T16:21:03.069Z,14.6875
2023-05-17T16:26:03.943Z,14.625
2023-05-17T16:31:04.951Z,14.75
2023-05-17T16:36:05.747Z,14.5625
2023-05-17T16:41:06.658Z,14.3125
2023-05-17T16:46:07.577Z,14.5625
2023-05-17T16:51:08.676Z,14.25
2023-05-17T16:56:09.612Z,14.25
2023-05-17T17:01:10.510Z,14.125
2023-05-17T17:06:11.439Z,14.1875
2023-05-17T17:11:12.341Z,14.125
2023-05-17T17:16:13.263Z,14
2023-05-17T17:21:14.355Z,13.9375
2023-05-17T17:26:15.412Z,13.875
2023-05-17T17:31:16.225Z,13.8125
2023-05-17T17:36:17.037Z,13.8125
2023-05-17T17:41:17.995Z,13.75
2023-05-17T17:46:19.068Z,13.5625
2023-05-17T17:51:19.887Z,13.5
2023-05-17T17:56:21.643Z,13.4375
2023-05-17T18:01:21.867Z,13.375
2023-05-17T18:06:22.699Z,13.1875
2023-05-17T18:11:23.483Z,13.1875
2023-05-17T18:16:24.693Z,13.0625
2023-05-17T18:21:25.448Z,13.125
2023-05-17T18:26:26.530Z,13
2023-05-17T18:31:27.320Z,12.875
2023-05-17T18:36:28.147Z,12.8125
2023-05-17T18:41:29.052Z,12.6875
2023-05-17T18:46:29.942Z,12.625
2023-05-17T18:51:30.871Z,12.5625
2023-05-17T18:56:31.956Z,12.25
2023-05-17T19:01:32.988Z,12.3125
2023-05-17T19:06:33.920Z,12.25
2023-05-17T19:11:34.699Z,12.25
2023-05-17T19:16:35.518Z,12.0625
2023-05-17T19:21:36.546Z,12.125
2023-05-17T19:26:37.536Z,11.875
2023-05-17T19:31:38.486Z,11.9375
2023-05-17T19:36:39.479Z,11.6875
2023-05-17T19:41:40.361Z,11.875
2023-05-17T19:46:41.210Z,11.8125
2023-05-17T19:51:42.132Z,11.75
2023-05-17T19:56:43.894Z,11.6875
2023-05-17T20:01:43.815Z,11.5
2023-05-17T20:06:44.738Z,11.5625
2023-05-17T20:11:45.868Z,11.4375
2023-05-17T20:16:47.013Z,11.4375
2023-05-17T20:21:47.860Z,11.375
2023-05-17T20:26:49.007Z,11.1875
2023-05-17T20:31:50.075Z,11.25
2023-05-17T20:36:50.812Z,11.1875
2023-05-17T20:41:52.013Z,11.1875
2023-05-17T20:46:53.005Z,11.0625
2023-05-17T20:51:53.927Z,11.0625
2023-05-17T20:56:54.975Z,10.9375
2023-05-17T21:01:56.089Z,10.9375
2023-05-17T21:06:56.883Z,10.8125
2023-05-17T21:11:57.872Z,10.75
2023-05-17T21:16:59.183Z,10.8125
2023-05-17T21:21:59.848Z,10.625
2023-05-17T21:27:01.010Z,10.5
2023-05-17T21:32:01.778Z,10.375
2023-05-17T21:37:02.756Z,10.25
2023-05-17T21:42:03.729Z,10.3125
2023-05-17T21:47:04.850Z,10.25
2023-05-17T21:52:05.746Z,10.0625
2023-05-17T21:57:06.798Z,10.1875
2023-05-17T22:02:07.675Z,10.0625
2023-05-17T22:07:08.624Z,10.0625
2023-05-17T22:12:09.473Z,10.1875
2023-05-17T22:17:10.279Z,10
2023-05-17T22:22:11.428Z,10
2023-05-17T22:27:12.232Z,9.9375
2023-05-17T22:32:13.041Z,9.9375
2023-05-17T22:37:14.130Z,9.875
2023-05-17T22:42:15.035Z,9.6875
2023-05-17T22:47:16.081Z,9.5625
2023-05-17T22:52:16.846Z,9.6875
2023-05-17T22:57:17.830Z,9.625
2023-05-17T23:02:18.825Z,9.625
2023-05-17T23:07:19.764Z,9.5
2023-05-17T23:12:20.781Z,9.4375
2023-05-17T23:17:21.695Z,9.25
2023-05-17T23:22:22.638Z,9.25
2023-05-17T23:27:23.866Z,9.125
2023-05-17T23:32:24.871Z,9.25
2023-05-17T23:37:25.809Z,9.25
2023-05-17T23:42:26.773Z,9.125
2023-05-17T23:47:27.667Z,9.0625
2023-05-17T23:52:28.393Z,9.0625
2023-05-17T23:57:30.318Z,8.875
